Time;durP1;ratioP1;P1;durP2;ratioP2;P2;SDS_P1;SDS_P2;PMS_P1;PMS_P2;Temp;Humidity;BMP_temperature;BMP_pressure;BME280_temperature;BME280_humidity;BME280_pressure;Samples;Min_cycle;Max_cycle;Signal;HPM_P1;HPM_P2
2022/08/11 00:02:26;;;;;;;16.15;6.37;;;;;;;12.18;77.43;99674.63;2222562;80;20933;-81
2022/08/11 00:05:27;;;;;;;13.83;5.62;;;;;;;12.26;77.91;99674.77;2222778;80;20965;-82
2022/08/11 00:08:27;;;;;;;9.60;5.22;;;;;;;12.22;77.75;99675.14;2222931;80;20924;-83
2022/08/11 00:11:28;;;;;;;8.90;5.67;;;;;;;12.18;78.05;99679.86;2223227;80;20932;-83
2022/08/11 00:14:28;;;;;;;11.40;5.35;;;;;;;12.13;77.90;99678.86;2223032;80;21343;-82
2022/08/11 00:17:28;;;;;;;101.80;13.10;;;;;;;12.10;78.06;99677.06;2222612;80;20961;-82
2022/08/11 00:20:29;;;;;;;13.95;6.37;;;;;;;12.11;78.38;99681.87;2223075;80;20929;-82
2022/08/11 00:23:30;;;;;;;9.25;5.75;;;;;;;12.16;78.69;99676.33;2222905;80;21366;-82
2022/08/11 00:26:30;;;;;;;8.15;4.87;;;;;;;12.17;78.51;99671.98;2222766;80;20969;-83
2022/08/11 00:29:30;;;;;;;12.82;5.60;;;;;;;12.17;78.63;99677.22;2222906;80;20925;-82
2022/08/11 00:32:30;;;;;;;10.43;5.72;;;;;;;12.21;78.69;99679.04;2223085;80;21273;-82
2022/08/11 00:35:31;;;;;;;8.88;5.12;;;;;;;12.21;78.21;99668.14;2222595;80;20952;-84
2022/08/11 00:38:31;;;;;;;8.08;5.10;;;;;;;12.21;78.75;99672.49;2222843;80;20956;-82
2022/08/11 00:41:32;;;;;;;19.90;6.00;;;;;;;12.17;78.47;99668.94;2222715;80;20935;-82
2022/08/11 00:44:32;;;;;;;8.13;4.55;;;;;;;12.17;78.64;99666.32;2222736;80;20960;-82
2022/08/11 00:47:35;;;;;;;7.45;4.87;;;;;;;12.16;78.95;99668.91;2222478;80;20937;-82
2022/08/11 00:50:36;;;;;;;8.70;4.85;;;;;;;12.15;79.08;99674.57;2222497;80;20971;-81
2022/08/11 00:53:36;;;;;;;11.12;5.33;;;;;;;12.12;79.21;99672.75;2222563;80;21000;-82
2022/08/11 00:56:37;;;;;;;8.50;4.58;;;;;;;12.16;79.33;99667.60;2222512;80;21003;-82
2022/08/11 00:59:37;;;;;;;9.50;5.12;;;;;;;12.15;79.39;99669.34;2222466;80;20933;-81
2022/08/11 01:02:37;;;;;;;7.05;4.70;;;;;;;12.19;79.45;99666.34;2222190;80;20953;-81
2022/08/11 01:05:38;;;;;;;8.10;4.90;;;;;;;12.20;79.43;99670.73;2212684;80;21004;-81
2022/08/11 01:08:38;;;;;;;6.28;4.78;;;;;;;12.18;79.28;99675.94;2211848;81;20941;-82
2022/08/11 01:11:38;;;;;;;9.25;5.20;;;;;;;12.17;79.30;99670.67;2212057;81;20996;-82
2022/08/11 01:14:39;;;;;;;32.67;7.17;;;;;;;12.25;79.77;99663.84;2211476;81;20928;-80
2022/08/11 01:17:39;;;;;;;10.38;4.53;;;;;;;12.22;79.46;99669.91;2211243;81;21003;-82
2022/08/11 01:20:40;;;;;;;10.50;4.78;;;;;;;12.21;79.80;99673.80;2212069;81;21073;-81
2022/08/11 01:23:40;;;;;;;13.10;5.50;;;;;;;12.20;79.69;99677.27;2211582;81;21327;-81
2022/08/11 01:26:40;;;;;;;10.90;4.62;;;;;;;12.23;80.14;99672.09;2211824;81;20960;-82
2022/08/11 01:29:41;;;;;;;33.25;6.45;;;;;;;12.24;79.63;99667.31;2211531;81;20960;-81
2022/08/11 01:32:41;;;;;;;5.00;4.15;;;;;;;12.24;79.63;99667.31;2212169;81;20905;-81
2022/08/11 01:35:42;;;;;;;6.07;4.90;;;;;;;12.30;79.89;99673.55;2212090;81;20961;-81
2022/08/11 01:38:42;;;;;;;44.15;7.00;;;;;;;12.29;79.86;99673.09;2212118;81;20928;-82
2022/08/11 01:45:02;;;;;;;9.23;5.12;;;;;;;12.39;79.78;99664.97;2211900;81;21017;-83
2022/08/11 01:48:02;;;;;;;5.92;4.55;;;;;;;12.36;79.72;99672.77;2212061;81;20910;-83
2022/08/11 01:51:02;;;;;;;8.35;4.40;;;;;;;12.35;79.66;99677.12;2211861;81;20929;-83
2022/08/11 01:54:03;;;;;;;11.10;5.03;;;;;;;12.40;79.88;99678.52;2211927;81;20923;-83
2022/08/11 01:57:03;;;;;;;51.08;8.10;;;;;;;12.39;79.93;99681.98;2212176;81;20988;-80
2022/08/11 02:00:03;;;;;;;8.85;4.70;;;;;;;12.38;80.20;99684.16;2212121;81;20885;-82
2022/08/11 02:03:05;;;;;;;6.72;4.83;;;;;;;12.39;80.29;99678.94;2212035;81;20893;-82
2022/08/11 02:06:53;;;;;;;8.60;5.15;;;;;;;12.40;80.05;99673.28;2211785;80;21034;-82
2022/08/11 02:09:05;;;;;;;6.65;4.70;;;;;;;12.38;80.05;99674.56;2212311;81;20955;-82
2022/08/11 02:12:05;;;;;;;10.65;5.05;;;;;;;12.34;80.03;99676.67;2212014;81;20977;-83
2022/08/11 02:15:06;;;;;;;23.77;5.15;;;;;;;12.30;80.23;99668.31;2211515;81;20983;-82
2022/08/11 02:18:06;;;;;;;6.30;5.25;;;;;;;12.33;80.29;99672.72;2212413;81;20984;-82
2022/08/11 02:24:26;;;;;;;7.12;4.72;;;;;;;12.30;80.27;99666.12;2212512;81;20988;-83
2022/08/11 02:27:26;;;;;;;6.92;4.95;;;;;;;12.27;80.22;99667.38;2212542;81;20956;-82
2022/08/11 02:30:27;;;;;;;10.63;5.20;;;;;;;12.27;80.28;99667.38;2212502;81;21314;-82
2022/08/11 02:33:29;;;;;;;15.53;5.75;;;;;;;12.20;80.15;99666.37;2211949;81;20924;-81
2022/08/11 02:36:28;;;;;;;9.85;5.37;;;;;;;12.16;79.96;99664.56;2211782;81;20992;-83
2022/08/11 02:39:28;;;;;;;8.40;4.55;;;;;;;12.15;80.35;99674.57;2212103;81;21374;-82
2022/08/11 02:42:28;;;;;;;7.17;4.78;;;;;;;12.15;80.01;99671.08;2211926;81;20936;-81
2022/08/11 02:45:29;;;;;;;11.85;5.40;;;;;;;12.09;79.58;99666.14;2212037;81;20889;-82
2022/08/11 02:51:52;;;;;;;7.90;5.45;;;;;;;11.91;80.12;99662.30;2211691;81;21362;-82
2022/08/11 02:54:48;;;;;;;12.83;5.57;;;;;;;11.85;80.00;99670.02;2212167;81;20933;-81
2022/08/11 02:57:49;;;;;;;17.33;6.23;;;;;;;11.78;80.04;99672.95;2212349;81;20963;-82
2022/08/11 03:00:49;;;;;;;9.55;5.42;;;;;;;11.76;80.44;99668.95;2212231;81;20948;-82
2022/08/11 03:03:50;;;;;;;12.35;5.67;;;;;;;11.79;80.44;99669.05;2212325;80;21035;-82
2022/08/11 03:06:50;;;;;;;40.38;8.65;;;;;;;11.71;80.00;99671.91;2212228;81;20988;-83
2022/08/11 03:09:50;;;;;;;12.40;5.50;;;;;;;11.65;80.28;99673.52;2212736;81;20957;-83
2022/08/11 03:19:28;;;;;;;10.45;5.72;;;;;;;11.53;80.51;99668.03;2212056;81;21045;-82
2022/08/11 03:22:29;;;;;;;8.58;5.10;;;;;;;11.54;80.40;99664.56;2212035;81;20976;-82
2022/08/11 03:25:30;;;;;;;8.87;5.70;;;;;;;11.51;80.21;99667.11;2211546;81;20941;-82
2022/08/11 03:28:30;;;;;;;8.80;5.58;;;;;;;11.49;80.09;99672.31;2211558;81;20968;-83
2022/08/11 03:31:30;;;;;;;11.97;6.40;;;;;;;11.40;79.93;99671.69;2211844;81;20976;-83
2022/08/11 03:34:30;;;;;;;17.62;6.62;;;;;;;11.34;80.19;99678.09;2211819;81;20996;-82
2022/08/11 03:37:50;;;;;;;14.95;5.87;;;;;;;11.39;80.32;99677.77;2212107;81;21027;-82
2022/08/11 03:44:08;;;;;;;11.50;5.80;;;;;;;11.48;80.78;99675.35;2211995;81;20980;-81
2022/08/11 03:47:09;;;;;;;37.53;6.65;;;;;;;11.44;79.99;99672.22;2211000;81;20991;-83
2022/08/11 03:50:09;;;;;;;13.60;6.10;;;;;;;11.41;80.23;99672.15;2210088;81;20976;-82
2022/08/11 03:53:10;;;;;;;21.90;6.40;;;;;;;11.41;80.12;99677.38;2209980;81;20964;-81
2022/08/11 03:56:10;;;;;;;55.25;9.48;;;;;;;11.45;80.09;99678.33;2209768;81;21004;-78
2022/08/11 03:59:10;;;;;;;24.37;7.60;;;;;;;11.45;80.30;99677.02;2209004;81;20991;-80
2022/08/11 04:02:11;;;;;;;12.90;6.47;;;;;;;11.54;80.76;99677.64;2209460;81;20960;-82
2022/08/11 04:05:11;;;;;;;10.37;5.83;;;;;;;11.66;80.62;99672.66;2213482;80;21514;-83
2022/08/11 04:08:12;;;;;;;13.08;6.30;;;;;;;11.67;79.77;99678.34;2219071;80;21745;-81
2022/08/11 04:11:12;;;;;;;8.55;5.83;;;;;;;11.64;80.08;99680.91;2219857;80;21003;-82
2022/08/11 04:17:31;;;;;;;16.17;6.87;;;;;;;11.82;81.01;99677.39;2219089;80;20991;-82
2022/08/11 04:20:32;;;;;;;12.07;6.53;;;;;;;11.87;80.24;99674.86;2219243;80;21023;-81
2022/08/11 04:23:32;;;;;;;18.32;7.17;;;;;;;11.92;80.52;99675.41;2219749;80;21004;-82
2022/08/11 04:26:33;;;;;;;14.18;6.92;;;;;;;11.98;80.30;99679.88;2219231;80;20999;-81
2022/08/11 04:29:33;;;;;;;14.78;7.03;;;;;;;11.99;80.53;99678.59;2218987;80;20976;-81
2022/08/11 04:32:33;;;;;;;22.70;9.88;;;;;;;12.07;80.72;99672.20;2219717;80;21027;-82
2022/08/11 04:35:34;;;;;;;15.03;7.35;;;;;;;12.23;81.80;99672.98;2219010;80;21087;-82
2022/08/11 04:38:34;;;;;;;19.70;7.95;;;;;;;12.43;82.00;99671.59;2218547;80;22021;-82
2022/08/11 04:43:19;;;;;;;114.47;12.85;;;;;;;12.67;81.96;99677.67;2218785;80;21019;-81
2022/08/11 04:44:35;;;;;;;43.40;8.90;;;;;;;12.91;81.59;99675.00;2219468;80;20951;-80
2022/08/11 05:05:29;;;;;;;10.55;6.65;;;;;;;14.34;78.77;99676.93;2217701;80;20972;-81
2022/08/11 05:07:10;;;;;;;13.80;7.05;;;;;;;14.54;78.37;99675.41;2208200;81;21028;-82
2022/08/11 05:10:10;;;;;;;9.13;6.22;;;;;;;14.71;78.02;99674.67;2208068;81;20987;-82
2022/08/11 05:36:22;;;;;;;29.98;7.45;;;;;;;16.22;74.84;99691.83;2208303;81;21486;-82
2022/08/11 05:59:15;;;;;;;10.10;6.60;;;;;;;17.72;70.94;99694.08;2208851;81;20981;-82
2022/08/11 06:02:15;;;;;;;7.60;6.15;;;;;;;17.98;70.28;99701.89;2208607;81;21386;-80
2022/08/11 06:05:16;;;;;;;12.68;6.60;;;;;;;18.09;69.45;99693.92;2206278;80;21135;-80
2022/08/11 06:08:16;;;;;;;10.82;6.67;;;;;;;18.27;69.39;99695.17;2207906;81;21003;-80
2022/08/11 06:11:17;;;;;;;24.77;8.28;;;;;;;18.51;68.58;99690.63;2207453;81;21012;-80
2022/08/11 06:14:17;;;;;;;13.18;6.47;;;;;;;18.72;68.43;99698.44;2207773;81;21000;-81
2022/08/11 06:17:18;;;;;;;60.10;9.48;;;;;;;18.91;67.39;99694.75;2207866;81;21019;-80
2022/08/11 06:20:18;;;;;;;12.53;5.78;;;;;;;19.14;67.42;99693.70;2208612;81;20968;-81
2022/08/11 06:23:19;;;;;;;9.05;5.17;;;;;;;19.34;66.43;99691.30;2207914;81;21455;-81
2022/08/11 06:26:19;;;;;;;7.33;5.15;;;;;;;19.57;66.29;99687.11;2207957;81;20960;-80
2022/08/11 06:29:19;;;;;;;33.50;6.30;;;;;;;19.77;65.21;99692.62;2208202;81;20960;-80
2022/08/11 06:32:20;;;;;;;17.73;5.92;;;;;;;19.95;64.83;99687.13;2208220;81;20999;-80
2022/08/11 06:35:20;;;;;;;6.40;3.83;;;;;;;20.18;64.64;99683.73;2207654;81;21090;-80
2022/08/11 06:38:20;;;;;;;10.15;3.72;;;;;;;20.47;63.23;99687.77;2207769;81;21004;-80
2022/08/11 06:41:30;;;;;;;4.78;3.42;;;;;;;20.79;62.10;99688.60;2207254;81;21316;-80
2022/08/11 06:44:31;;;;;;;4.80;3.70;;;;;;;20.98;60.80;99688.75;2207479;81;20940;-79
2022/08/11 06:47:30;;;;;;;4.35;3.83;;;;;;;21.11;60.86;99682.78;2207461;81;20952;-79
2022/08/11 06:53:50;;;;;;;14.45;4.55;;;;;;;21.47;58.23;99683.47;2208266;81;21012;-79
2022/08/11 07:00:27;;;;;;;3.65;3.17;;;;;;;21.83;57.46;99682.36;2208785;81;20999;-80
2022/08/11 07:03:27;;;;;;;4.85;2.75;;;;;;;22.08;57.54;99679.64;2208324;81;20968;-81
2022/08/11 07:06:29;;;;;;;9.25;3.50;;;;;;;22.45;56.51;99680.14;2216534;80;21022;-81
2022/08/11 07:16:06;;;;;;;3.95;1.98;;;;;;;22.81;51.96;99675.34;2219106;80;21646;-79
2022/08/11 07:29:05;;;;;;;4.30;2.30;;;;;;;22.90;50.57;99664.92;2184836;80;21939;-79
2022/08/11 07:32:05;;;;;;;3.83;2.20;;;;;;;22.88;50.45;99668.95;2215770;80;20999;-79
2022/08/11 07:35:06;;;;;;;2.27;1.92;;;;;;;22.96;50.64;99674.53;2216509;80;21003;-80
2022/08/11 07:38:06;;;;;;;2.27;1.80;;;;;;;23.08;50.10;99672.44;2218187;80;21445;-80
2022/08/11 07:41:07;;;;;;;3.17;1.80;;;;;;;23.31;49.07;99676.28;2218961;80;20932;-80
2022/08/11 07:44:16;;;;;;;5.58;1.98;;;;;;;23.24;49.46;99675.57;2218667;80;20967;-79
2022/08/11 07:54:03;;;;;;;23.45;3.83;;;;;;;23.44;49.41;99670.62;2218361;80;21083;-79
2022/08/11 08:20:15;;;;;;;3.45;1.60;;;;;;;23.49;46.66;99663.38;2207643;81;20953;-80
2022/08/11 08:23:16;;;;;;;4.33;1.70;;;;;;;23.50;46.40;99663.78;2208018;81;21736;-83
2022/08/11 08:32:56;;;;;;;6.62;1.80;;;;;;;24.08;45.71;99644.80;2209769;81;20995;-82
2022/08/11 08:36:19;;;;;;;10.00;2.62;;;;;;;24.43;44.36;99653.56;2210150;81;20992;-82
2022/08/11 08:38:57;;;;;;;13.88;2.60;;;;;;;24.53;44.04;99644.34;2210416;81;21043;-82
2022/08/11 08:41:57;;;;;;;2.87;1.80;;;;;;;24.90;44.34;99643.13;2209044;81;20959;-82
2022/08/11 08:44:57;;;;;;;22.87;3.83;;;;;;;25.22;43.26;99643.42;2208284;81;20999;-81
2022/08/11 08:47:58;;;;;;;7.87;2.20;;;;;;;25.35;43.96;99646.94;2208912;81;21007;-81
2022/08/11 08:54:17;;;;;;;2.20;2.00;;;;;;;25.35;43.29;99633.58;2208680;81;20995;-80
2022/08/11 08:57:19;;;;;;;4.47;2.05;;;;;;;25.37;42.39;99637.07;2208610;81;20976;-81
2022/08/11 09:00:18;;;;;;;4.83;2.10;;;;;;;25.23;43.25;99632.68;2208680;81;21329;-82
2022/08/11 09:03:19;;;;;;;10.30;2.33;;;;;;;25.43;41.74;99635.97;2209505;81;20976;-82
2022/08/11 09:06:19;;;;;;;5.30;2.12;;;;;;;25.17;42.43;99636.03;2209777;81;21067;-83
2022/08/11 09:09:19;;;;;;;5.50;1.90;;;;;;;24.58;41.65;99636.19;2209460;81;20956;-82
2022/08/11 09:12:20;;;;;;;3.12;1.75;;;;;;;24.49;42.55;99635.16;2210190;81;21003;-82
2022/08/11 09:15:21;;;;;;;4.55;1.57;;;;;;;24.59;42.29;99640.14;2209021;81;21383;-81
2022/08/11 09:18:21;;;;;;;5.60;2.20;;;;;;;24.92;42.08;99632.80;2208589;81;20976;-81
2022/08/11 09:21:22;;;;;;;12.03;2.08;;;;;;;25.50;42.31;99629.94;2208716;81;20999;-81
2022/08/11 09:27:40;;;;;;;3.50;1.85;;;;;;;26.36;38.95;99632.98;2208583;81;20956;-81
2022/08/11 09:30:41;;;;;;;4.40;1.60;;;;;;;26.20;40.38;99629.54;2208854;81;21027;-81
2022/08/11 09:33:41;;;;;;;29.27;3.17;;;;;;;26.12;38.71;99625.42;2208920;81;21454;-79
2022/08/11 09:46:38;;;;;;;2.12;1.20;;;;;;;25.08;40.10;99626.05;2208531;81;21644;-83
2022/08/11 09:49:38;;;;;;;1.92;1.25;;;;;;;24.95;41.03;99622.48;2208725;81;20990;-82
2022/08/11 09:52:39;;;;;;;2.33;1.65;;;;;;;25.11;40.66;99614.84;2208172;81;21003;-81
2022/08/11 09:55:39;;;;;;;1.30;1.20;;;;;;;25.23;41.29;99605.96;2207551;81;20989;-83
2022/08/11 09:58:39;;;;;;;3.65;1.20;;;;;;;25.42;39.83;99612.84;2208094;81;20964;-82
2022/08/11 10:01:41;;;;;;;1.10;1.00;;;;;;;25.43;39.09;99609.25;2207881;81;21008;-83
2022/08/11 10:04:40;;;;;;;2.10;1.40;;;;;;;25.60;37.61;99606.83;2208238;81;21433;-82
2022/08/11 10:07:41;;;;;;;1.27;1.17;;;;;;;26.03;38.39;99598.09;2216061;80;21570;-82
2022/08/11 10:10:41;;;;;;;1.67;1.00;;;;;;;26.15;36.79;99602.09;2218828;80;20955;-81
2022/08/11 10:17:00;;;;;;;3.83;1.40;;;;;;;25.77;37.14;99590.18;2219357;80;21343;-82
2022/08/11 10:20:06;;;;;;;34.67;3.33;;;;;;;26.15;36.49;99586.51;2219704;80;20984;-80
2022/08/11 10:36:22;;;;;;;1.00;1.00;;;;;;;27.11;34.19;99567.34;2221402;80;21460;-83
2022/08/11 10:39:23;;;;;;;1.05;1.02;;;;;;;27.09;34.86;99555.83;2221757;80;20960;-83
2022/08/11 10:49:01;;;;;;;1.62;1.10;;;;;;;26.98;33.62;99548.73;2220171;80;20932;-82
2022/08/11 10:58:48;;;;;;;0.90;0.90;;;;;;;26.61;34.96;99532.85;2221007;80;20974;-83
2022/08/11 11:01:48;;;;;;;1.20;1.10;;;;;;;26.50;33.95;99524.41;2220719;80;20940;-83
2022/08/11 11:04:49;;;;;;;1.32;1.07;;;;;;;26.74;34.62;99517.59;2221923;80;20941;-83
2022/08/11 11:07:49;;;;;;;25.52;3.30;;;;;;;27.08;34.50;99515.23;2221791;80;21015;-81
2022/08/11 11:10:49;;;;;;;7.60;1.80;;;;;;;27.25;34.62;99506.42;2220876;80;20960;-82
2022/08/11 11:20:27;;;;;;;2.60;1.20;;;;;;;26.31;35.68;99507.34;2220782;80;21299;-81
2022/08/11 11:23:28;;;;;;;3.58;1.30;;;;;;;26.28;35.87;99502.12;2220690;80;21027;-82
2022/08/11 11:26:28;;;;;;;2.45;1.00;;;;;;;25.74;36.65;99501.19;2220576;80;21346;-83
2022/08/11 11:29:29;;;;;;;3.90;1.35;;;;;;;25.62;36.79;99499.83;2220267;80;20972;-83
2022/08/11 11:32:29;;;;;;;1.95;1.32;;;;;;;25.60;37.59;99503.03;2221092;80;20968;-83
2022/08/11 11:35:30;;;;;;;5.37;1.42;;;;;;;25.85;37.12;99490.47;2220411;80;21023;-83
2022/08/11 11:38:30;;;;;;;1.17;1.10;;;;;;;25.78;36.14;99486.30;2219594;80;21009;-83
2022/08/11 11:41:30;;;;;;;4.67;1.40;;;;;;;26.21;36.48;99489.93;2219514;80;20991;-82
2022/08/11 11:44:31;;;;;;;1.60;1.27;;;;;;;26.03;35.10;99499.12;2219547;80;21007;-84
2022/08/11 11:47:31;;;;;;;2.62;1.30;;;;;;;25.77;35.22;99492.58;2220042;80;21082;-83
2022/08/11 11:50:33;;;;;;;6.70;1.40;;;;;;;25.91;36.14;99494.23;2218719;80;20952;-79
2022/08/11 11:53:32;;;;;;;1.37;1.10;;;;;;;26.37;34.68;99478.14;2219307;80;21026;-83
2022/08/11 11:56:32;;;;;;;12.53;2.67;;;;;;;26.64;34.17;99477.83;2219152;80;20987;-84
2022/08/11 12:02:52;;;;;;;6.25;1.70;;;;;;;26.76;34.38;99472.87;2219627;80;21009;-83
2022/08/11 12:05:52;;;;;;;3.17;1.30;;;;;;;26.42;35.13;99482.84;2219475;80;20983;-84
2022/08/11 12:08:53;;;;;;;6.85;1.67;;;;;;;26.06;35.15;99481.20;2219251;80;21426;-84
2022/08/11 12:15:12;;;;;;;1.55;1.45;;;;;;;25.20;39.03;99511.23;2219086;80;21330;-84
2022/08/11 12:18:12;;;;;;;4.10;1.50;;;;;;;24.58;42.52;99518.75;2218990;80;21000;-83
2022/08/11 12:21:12;;;;;;;3.58;1.40;;;;;;;24.05;45.92;99520.88;2218977;80;21030;-84
2022/08/11 12:27:32;;;;;;;2.58;1.62;;;;;;;22.80;52.23;99536.97;2218728;80;21395;-84
2022/08/11 12:30:32;;;;;;;4.72;1.67;;;;;;;22.24;53.08;99540.56;2219441;80;21022;-84
2022/08/11 12:33:32;;;;;;;14.15;2.92;;;;;;;21.89;54.58;99551.54;2219438;80;20971;-85
2022/08/11 12:36:33;;;;;;;2.83;1.40;;;;;;;21.62;59.36;99546.81;2219251;80;22200;-84
2022/08/11 12:46:11;;;;;;;1.30;1.20;;;;;;;20.79;56.07;99550.19;2220612;80;21255;-84
2022/08/11 12:52:31;;;;;;;7.25;1.37;;;;;;;20.36;59.02;99557.53;2219579;80;21914;-82
2022/08/11 12:58:49;;;;;;;7.65;1.72;;;;;;;20.29;59.01;99549.25;2219188;80;20928;-82
2022/08/11 13:05:10;;;;;;;2.40;1.50;;;;;;;20.62;59.82;99548.28;2218755;80;21011;-83
2022/08/11 13:08:10;;;;;;;1.27;1.20;;;;;;;20.80;58.97;99549.28;2219040;80;21089;-82
2022/08/11 13:14:31;;;;;;;4.78;1.50;;;;;;;21.29;57.95;99549.72;2219574;80;20963;-84
2022/08/11 13:17:30;;;;;;;1.65;1.40;;;;;;;21.46;58.44;99542.28;2219354;80;20991;-83
2022/08/11 13:20:30;;;;;;;1.30;1.30;;;;;;;21.89;58.83;99534.72;2218996;80;21965;-84
2022/08/11 13:23:30;;;;;;;2.52;1.50;;;;;;;22.16;58.44;99531.90;2218613;80;20999;-83
2022/08/11 13:26:31;;;;;;;2.08;1.67;;;;;;;22.49;57.43;99520.87;2218319;80;21003;-82
2022/08/11 13:29:31;;;;;;;3.17;1.55;;;;;;;22.94;56.43;99518.84;2218348;80;21658;-83
2022/08/11 13:32:32;;;;;;;1.95;1.67;;;;;;;23.23;55.78;99523.80;2218480;80;21012;-84
2022/08/11 13:35:32;;;;;;;1.60;1.37;;;;;;;23.43;55.71;99532.99;2218420;80;20991;-82
2022/08/11 13:38:33;;;;;;;2.02;1.35;;;;;;;24.21;53.96;99532.39;2218666;80;21477;-82
2022/08/11 13:41:40;;;;;;;2.15;1.42;;;;;;;24.95;48.76;99524.54;2220150;80;20948;-82
2022/08/11 13:44:40;;;;;;;3.70;2.42;;;;;;;25.21;45.78;99524.12;2219386;80;20967;-84
2022/08/11 13:47:40;;;;;;;4.42;2.60;;;;;;;25.40;44.54;99530.05;2219316;80;20999;-83
2022/08/11 13:53:59;;;;;;;9.40;3.20;;;;;;;24.98;48.50;99540.48;2219396;80;21014;-81
2022/08/11 13:56:59;;;;;;;9.23;2.58;;;;;;;24.23;52.54;99518.54;2219828;80;20999;-82
2022/08/11 14:00:09;;;;;;;6.05;2.90;;;;;;;23.79;55.57;99511.51;2219034;80;20983;-80
2022/08/11 14:03:13;;;;;;;6.50;2.30;;;;;;;23.51;58.15;99517.65;2220108;80;20960;-81
2022/08/11 14:06:10;;;;;;;8.70;2.40;;;;;;;23.17;59.24;99515.53;2220717;80;21023;-81
2022/08/11 14:09:10;;;;;;;5.78;2.25;;;;;;;23.01;60.79;99515.55;2220152;80;21106;-82
2022/08/11 14:15:30;;;;;;;7.25;1.90;;;;;;;22.89;61.83;99508.77;2221201;80;20984;-82
2022/08/11 14:18:30;;;;;;;4.20;2.35;;;;;;;23.07;61.19;99507.39;2221780;80;21050;-80
2022/08/11 14:24:52;;;;;;;5.30;2.20;;;;;;;23.18;61.72;99493.30;2222473;80;21044;-80
2022/08/11 14:27:53;;;;;;;5.42;1.92;;;;;;;23.21;61.22;99483.89;2222012;80;20959;-82
2022/08/11 14:30:56;;;;;;;4.28;1.70;;;;;;;23.37;61.02;99477.20;2221342;80;21308;-78
2022/08/11 14:33:56;;;;;;;2.55;1.72;;;;;;;23.37;58.25;99474.53;2222150;80;21350;-82
2022/08/11 14:36:57;;;;;;;8.73;2.33;;;;;;;22.94;57.35;99467.38;2222356;80;21002;-83
2022/08/11 14:39:57;;;;;;;3.80;1.82;;;;;;;23.03;57.94;99464.00;2221381;80;21000;-83
2022/08/11 14:49:35;;;;;;;2.25;2.05;;;;;;;22.95;60.88;99469.13;2221395;80;20980;-80
2022/08/11 14:52:36;;;;;;;3.47;2.00;;;;;;;23.38;59.93;99478.94;2221672;80;20987;-82
2022/08/11 14:58:55;;;;;;;10.75;2.22;;;;;;;23.67;59.50;99471.91;2220910;80;20948;-83
2022/08/11 15:05:14;;;;;;;2.05;1.80;;;;;;;24.03;58.47;99457.39;2219937;80;21506;-82
2022/08/11 15:08:14;;;;;;;4.45;1.67;;;;;;;24.23;58.19;99453.19;2214541;80;21007;-83
2022/08/11 15:17:53;;;;;;;5.58;3.12;;;;;;;24.36;57.87;99450.11;2212181;81;20984;-83
2022/08/11 15:24:18;;;;;;;9.80;2.47;;;;;;;24.72;57.18;99466.63;2211229;81;20999;-83
2022/08/11 15:37:29;;;;;;;2.80;1.90;;;;;;;24.79;56.62;99469.95;2211216;81;21027;-84
2022/08/11 15:47:07;;;;;;;5.08;1.87;;;;;;;25.13;55.34;99453.58;2212321;81;20964;-86
2022/08/11 15:50:05;;;;;;;5.12;2.10;;;;;;;25.47;53.51;99457.66;2211771;81;20962;-86
2022/08/11 15:53:06;;;;;;;2.47;1.72;;;;;;;25.76;52.71;99452.06;2211994;81;21001;-86
2022/08/11 15:56:06;;;;;;;2.30;2.10;;;;;;;26.01;51.76;99454.64;2211893;81;20991;-83
2022/08/11 16:05:44;;;;;;;2.15;1.60;;;;;;;25.42;51.93;99433.79;2211886;81;21040;-84
2022/08/11 16:08:45;;;;;;;2.15;1.90;;;;;;;25.27;50.17;99435.72;2217156;80;21023;-85
2022/08/11 16:11:45;;;;;;;1.77;1.45;;;;;;;24.74;51.21;99434.07;2221468;80;20971;-85
2022/08/11 16:18:04;;;;;;;1.52;1.42;;;;;;;24.49;51.50;99434.54;2221616;80;21074;-85
2022/08/11 16:21:05;;;;;;;7.15;2.33;;;;;;;24.25;51.57;99432.66;2222642;80;20908;-83
2022/08/11 16:24:05;;;;;;;1.82;1.50;;;;;;;23.97;52.00;99440.73;2222368;80;21022;-85
2022/08/11 16:27:06;;;;;;;1.65;1.42;;;;;;;23.85;51.85;99442.45;2221405;80;20983;-84
2022/08/11 16:30:06;;;;;;;1.55;1.30;;;;;;;23.76;52.41;99452.50;2221519;80;20972;-86
2022/08/11 16:33:06;;;;;;;1.77;1.65;;;;;;;23.71;52.47;99450.91;2222411;80;20936;-86
2022/08/11 16:39:17;;;;;;;61.08;7.12;;;;;;;23.67;52.91;99459.45;2220776;80;20972;-85
2022/08/11 16:48:52;;;;;;;4.10;2.12;;;;;;;23.70;55.66;99466.48;2221216;80;20980;-85
2022/08/11 16:51:52;;;;;;;4.80;2.45;;;;;;;23.92;54.29;99466.20;2222186;80;20972;-83
2022/08/11 16:54:52;;;;;;;5.00;2.60;;;;;;;24.00;53.39;99473.49;2222475;80;20924;-86
2022/08/11 17:01:12;;;;;;;6.25;2.30;;;;;;;24.00;53.04;99466.83;2221924;80;20912;-86
2022/08/11 17:13:54;;;;;;;59.23;6.60;;;;;;;23.47;54.71;99456.50;2210863;81;20984;-84
2022/08/11 17:16:54;;;;;;;6.60;2.15;;;;;;;23.23;54.93;99456.76;2210190;81;21031;-83
2022/08/11 17:19:54;;;;;;;6.92;2.80;;;;;;;22.91;56.82;99446.17;2210432;81;21004;-84
2022/08/11 17:26:14;;;;;;;4.87;2.37;;;;;;;22.83;57.96;99449.05;2209593;81;21050;-82
2022/08/11 17:29:14;;;;;;;8.63;2.15;;;;;;;22.94;57.72;99450.08;2210020;81;20995;-83
2022/08/11 17:35:33;;;;;;;8.18;2.62;;;;;;;23.03;57.89;99453.34;2210397;81;20949;-82
2022/08/11 17:38:34;;;;;;;11.00;2.15;;;;;;;23.00;57.84;99448.57;2210496;81;21015;-83
2022/08/11 17:48:24;;;;;;;6.22;2.27;;;;;;;21.92;59.50;99457.12;2212510;81;20944;-85
2022/08/11 18:01:21;;;;;;;5.78;2.45;;;;;;;22.40;58.68;99458.60;2212449;81;21021;-84
2022/08/11 18:04:21;;;;;;;12.43;3.85;;;;;;;22.35;59.35;99464.50;2212381;81;21311;-85
